Time;durP1;ratioP1;P1;durP2;ratioP2;P2;SDS_P1;SDS_P2;PMS_P1;PMS_P2;Temp;Humidity;BMP_temperature;BMP_pressure;BME280_temperature;BME280_humidity;BME280_pressure;Samples;Min_cycle;Max_cycle;Signal;HPM_P1;HPM_P2
2021/09/17 00:01:06;;;;;;;3.78;2.13;;;;;;;14.47;80.45;100694.47;5073089;28;20082;-75
2021/09/17 00:03:32;;;;;;;4.75;1.92;;;;;;;14.47;80.13;100683.28;5065884;28;20079;-74
2021/09/17 00:05:57;;;;;;;3.25;2.30;;;;;;;14.45;80.23;100682.78;5073844;28;20032;-75
2021/09/17 00:08:23;;;;;;;3.15;2.38;;;;;;;14.38;80.69;100679.59;5038576;28;20040;-75
2021/09/17 00:10:48;;;;;;;4.05;2.13;;;;;;;14.39;80.35;100674.84;5058243;28;20041;-76
2021/09/17 00:13:14;;;;;;;4.20;1.67;;;;;;;14.34;80.55;100672.97;5058907;28;20055;-75
2021/09/17 00:15:39;;;;;;;2.80;2.03;;;;;;;14.31;80.57;100676.41;5074923;28;20028;-75
2021/09/17 00:18:05;;;;;;;4.35;2.13;;;;;;;14.32;80.75;100672.50;5058428;28;20458;-75
2021/09/17 00:20:30;;;;;;;3.33;2.13;;;;;;;14.28;80.62;100669.47;5061380;28;20392;-75
2021/09/17 00:22:56;;;;;;;2.50;1.63;;;;;;;14.20;80.68;100659.06;5077765;28;20020;-75
2021/09/17 00:25:21;;;;;;;2.72;1.98;;;;;;;14.18;80.72;100661.34;5075821;28;20044;-75
2021/09/17 00:27:47;;;;;;;3.95;1.83;;;;;;;14.17;80.60;100658.88;5054287;28;20088;-75
2021/09/17 00:30:12;;;;;;;3.05;2.25;;;;;;;14.13;80.62;100655.88;5046166;28;20048;-75
2021/09/17 00:32:38;;;;;;;3.38;1.92;;;;;;;14.17;80.40;100656.88;5051952;28;20495;-75
2021/09/17 00:35:03;;;;;;;3.38;2.13;;;;;;;14.09;80.88;100657.63;5058292;28;20028;-75
2021/09/17 00:37:29;;;;;;;4.38;2.25;;;;;;;14.06;80.66;100653.50;5058232;28;20066;-75
2021/09/17 00:39:54;;;;;;;4.07;2.15;;;;;;;14.03;80.82;100650.53;5058002;28;20040;-75
2021/09/17 00:42:20;;;;;;;3.03;2.45;;;;;;;14.02;81.06;100649.69;5070680;28;20097;-74
2021/09/17 00:44:45;;;;;;;2.63;2.20;;;;;;;13.99;80.90;100655.09;5059591;28;20036;-75
2021/09/17 00:47:11;;;;;;;3.00;2.20;;;;;;;14.02;80.82;100646.09;5076833;28;20044;-75
2021/09/17 00:49:36;;;;;;;2.58;2.03;;;;;;;13.96;80.78;100647.34;5056172;28;20033;-75
2021/09/17 00:52:02;;;;;;;2.40;1.60;;;;;;;13.91;81.11;100644.66;5074178;28;20032;-75
2021/09/17 00:54:28;;;;;;;1.85;1.67;;;;;;;13.91;81.06;100644.66;5025547;28;20421;-75
2021/09/17 00:56:54;;;;;;;2.22;1.85;;;;;;;13.86;81.09;100640.00;5059659;28;20588;-74
2021/09/17 00:59:19;;;;;;;3.33;1.95;;;;;;;13.90;81.00;100640.19;5075660;28;20035;-75
2021/09/17 01:01:45;;;;;;;3.30;1.90;;;;;;;13.85;81.08;100633.59;5058745;28;20028;-74
2021/09/17 01:04:10;;;;;;;2.88;2.08;;;;;;;13.81;81.23;100629.78;5057834;28;20032;-75
2021/09/17 01:06:37;;;;;;;2.83;1.90;;;;;;;13.81;81.10;100620.56;5060478;28;20032;-74
2021/09/17 01:09:05;;;;;;;3.28;2.10;;;;;;;13.79;81.11;100622.84;5076807;28;20484;-75
2021/09/17 01:11:31;;;;;;;3.88;2.10;;;;;;;13.75;81.16;100619.03;5058464;28;20115;-75
2021/09/17 01:13:57;;;;;;;3.08;1.88;;;;;;;13.78;80.93;100615.63;5076420;28;20035;-75
2021/09/17 01:16:23;;;;;;;3.42;2.30;;;;;;;13.75;81.22;100616.25;5077565;28;20028;-75
2021/09/17 01:18:50;;;;;;;5.25;2.33;;;;;;;13.71;81.45;100604.91;5077080;28;20032;-75
2021/09/17 01:21:16;;;;;;;3.85;2.70;;;;;;;13.69;81.43;100603.56;5057880;28;20031;-75
2021/09/17 01:23:41;;;;;;;3.55;2.20;;;;;;;13.68;81.11;100602.72;5058530;28;20028;-75
2021/09/17 01:26:07;;;;;;;3.65;2.20;;;;;;;13.69;81.29;100600.75;5075840;28;20078;-75
2021/09/17 01:28:32;;;;;;;3.60;2.30;;;;;;;13.62;81.47;100601.16;5051648;28;20562;-75
2021/09/17 01:30:58;;;;;;;3.90;2.33;;;;;;;13.62;81.48;100596.44;5075818;28;20037;-75
2021/09/17 01:33:24;;;;;;;2.25;1.92;;;;;;;13.61;81.44;100594.78;5076099;28;20037;-75
2021/09/17 01:35:57;;;;;;;2.35;2.08;;;;;;;13.61;81.52;100599.53;5037800;28;20087;-75
2021/09/17 01:38:24;;;;;;;4.05;2.17;;;;;;;13.60;81.41;100597.88;5059236;28;20033;-75
2021/09/17 01:40:49;;;;;;;2.35;2.10;;;;;;;13.55;81.63;100584.88;5073572;28;20035;-75
2021/09/17 01:43:15;;;;;;;2.67;2.28;;;;;;;13.59;81.41;100591.47;5074787;28;20512;-76
2021/09/17 01:45:40;;;;;;;2.63;2.00;;;;;;;13.56;81.48;100580.91;5050833;28;20053;-75
2021/09/17 01:48:05;;;;;;;2.72;1.98;;;;;;;13.51;81.73;100583.00;5053550;28;20035;-75
2021/09/17 01:50:31;;;;;;;3.97;2.05;;;;;;;13.51;81.85;100571.84;5067231;28;20039;-75
2021/09/17 01:52:56;;;;;;;2.28;1.95;;;;;;;13.50;81.54;100564.63;5073076;28;20083;-75
2021/09/17 01:55:23;;;;;;;2.10;1.83;;;;;;;13.47;81.70;100566.06;5056807;28;20028;-75
2021/09/17 01:57:50;;;;;;;2.95;2.00;;;;;;;13.47;81.64;100566.06;5056655;28;20652;-75
2021/09/17 02:00:16;;;;;;;2.63;2.13;;;;;;;13.44;81.56;100555.53;5056914;28;20040;-75
2021/09/17 02:02:41;;;;;;;3.25;1.83;;;;;;;13.43;81.63;100551.09;5059322;28;20028;-75
2021/09/17 02:05:07;;;;;;;2.03;1.80;;;;;;;13.45;81.77;100554.38;5075964;28;20036;-75
2021/09/17 02:07:33;;;;;;;2.95;1.70;;;;;;;13.40;81.60;100544.19;5075706;28;20055;-75
2021/09/17 02:09:58;;;;;;;3.92;1.73;;;;;;;13.37;81.77;100542.03;5024458;28;20036;-76
2021/09/17 02:12:24;;;;;;;2.97;2.00;;;;;;;13.38;81.70;100543.66;5074899;28;20025;-75
2021/09/17 02:14:49;;;;;;;3.47;2.03;;;;;;;13.37;81.89;100543.97;5033332;28;20020;-75
2021/09/17 02:17:16;;;;;;;2.38;2.00;;;;;;;13.31;81.75;100542.41;5028577;28;20047;-75
2021/09/17 02:19:42;;;;;;;2.95;1.95;;;;;;;13.28;82.10;100537.47;5040917;28;20032;-76
2021/09/17 02:22:07;;;;;;;2.17;1.70;;;;;;;13.22;81.99;100533.13;5057333;28;20107;-76
2021/09/17 02:24:33;;;;;;;2.40;1.70;;;;;;;13.18;82.18;100539.31;5057629;28;20032;-75
2021/09/17 02:26:58;;;;;;;2.80;1.70;;;;;;;13.15;82.25;100531.56;5058497;28;20024;-74
2021/09/17 02:29:24;;;;;;;4.75;1.80;;;;;;;13.11;82.13;100524.94;5056450;28;20035;-75
2021/09/17 02:31:49;;;;;;;1.73;1.63;;;;;;;13.12;82.15;100529.41;5053806;28;20032;-75
2021/09/17 02:34:15;;;;;;;2.92;2.20;;;;;;;13.09;82.10;100520.81;5075504;28;20063;-75
2021/09/17 02:36:40;;;;;;;3.83;2.20;;;;;;;13.06;82.32;100525.06;5056985;28;20385;-75
2021/09/17 02:39:06;;;;;;;2.38;2.08;;;;;;;13.03;82.30;100520.09;5056138;28;20040;-75
2021/09/17 02:41:31;;;;;;;2.67;1.75;;;;;;;13.00;82.33;100522.69;5015075;28;20037;-75
2021/09/17 02:43:56;;;;;;;3.20;2.00;;;;;;;13.00;82.02;100517.94;5073630;28;20384;-75
2021/09/17 02:46:22;;;;;;;3.55;1.98;;;;;;;12.95;82.27;100509.66;5074992;28;20021;-75
2021/09/17 02:48:47;;;;;;;1.80;1.50;;;;;;;12.92;82.12;100508.31;5068600;28;20036;-75
2021/09/17 02:51:13;;;;;;;3.17;1.80;;;;;;;12.88;82.25;100504.53;5053759;28;20086;-75
2021/09/17 02:53:38;;;;;;;2.40;1.60;;;;;;;12.87;82.27;100505.66;5039809;28;20031;-75
2021/09/17 02:56:04;;;;;;;1.70;1.48;;;;;;;12.88;82.00;100507.31;5073425;28;20037;-75
2021/09/17 02:58:30;;;;;;;1.65;1.55;;;;;;;12.88;82.20;100498.13;5073231;28;20448;-75
2021/09/17 03:00:55;;;;;;;3.05;1.50;;;;;;;12.81;82.34;100492.13;5056414;28;20032;-76
2021/09/17 03:03:21;;;;;;;1.80;1.55;;;;;;;12.75;82.18;100496.97;5021307;28;20490;-75
2021/09/17 03:05:46;;;;;;;1.83;1.52;;;;;;;12.73;82.24;100488.94;5056791;28;20020;-75
2021/09/17 03:08:12;;;;;;;1.92;1.40;;;;;;;12.75;82.39;100483.88;5055929;28;20097;-75
2021/09/17 03:10:38;;;;;;;1.75;1.65;;;;;;;12.69;82.43;100485.09;5057846;28;20056;-76
2021/09/17 03:13:03;;;;;;;2.17;1.40;;;;;;;12.73;82.21;100486.16;5037520;28;20392;-76
2021/09/17 03:15:29;;;;;;;2.38;1.30;;;;;;;12.66;82.04;100477.38;5035240;28;20442;-74
2021/09/17 03:17:55;;;;;;;2.95;1.70;;;;;;;12.62;82.07;100479.13;5073185;28;20089;-74
2021/09/17 03:20:20;;;;;;;2.83;1.83;;;;;;;12.60;82.17;100473.03;5075101;28;20036;-75
2021/09/17 03:22:46;;;;;;;1.73;1.63;;;;;;;12.56;82.50;100466.41;5075560;28;20204;-75
2021/09/17 03:25:11;;;;;;;1.30;1.20;;;;;;;12.52;82.69;100468.19;5072207;28;20040;-75
2021/09/17 03:27:37;;;;;;;4.78;1.80;;;;;;;12.52;82.49;100462.59;5072945;28;20519;-75
2021/09/17 03:30:04;;;;;;;2.35;1.80;;;;;;;12.47;82.40;100459.91;5057772;28;20037;-75
2021/09/17 03:32:29;;;;;;;2.05;1.85;;;;;;;12.44;82.71;100460.53;5057692;28;20032;-75
2021/09/17 03:34:55;;;;;;;2.25;1.77;;;;;;;12.43;82.63;100454.16;5073443;28;20029;-75
2021/09/17 03:37:21;;;;;;;6.47;2.20;;;;;;;12.40;82.86;100445.59;5052300;28;20025;-75
2021/09/17 03:39:46;;;;;;;2.45;2.17;;;;;;;12.38;82.83;100448.66;5037471;28;20033;-74
2021/09/17 03:42:12;;;;;;;2.50;2.20;;;;;;;12.34;82.89;100441.22;5052817;28;20036;-75
2021/09/17 03:44:37;;;;;;;3.55;2.50;;;;;;;12.32;82.88;100437.94;5078340;28;20055;-75
2021/09/17 03:47:03;;;;;;;3.63;2.42;;;;;;;12.30;82.62;100433.50;5035879;28;20040;-75
2021/09/17 03:49:28;;;;;;;2.85;2.20;;;;;;;12.26;82.76;100437.22;5059895;28;20028;-75
2021/09/17 03:51:54;;;;;;;4.22;2.28;;;;;;;12.26;82.77;100437.22;5071689;28;20393;-75
2021/09/17 03:54:25;;;;;;;3.03;2.58;;;;;;;12.23;82.60;100435.00;5052828;28;20478;-76
2021/09/17 03:56:51;;;;;;;2.85;2.28;;;;;;;12.26;82.53;100432.47;5061019;28;20032;-76
2021/09/17 03:59:16;;;;;;;3.40;2.65;;;;;;;12.22;82.59;100431.41;5041352;28;20036;-75
2021/09/17 04:01:44;;;;;;;2.38;2.17;;;;;;;12.17;82.55;100425.94;5077648;28;20028;-76
2021/09/17 04:04:10;;;;;;;2.58;2.03;;;;;;;12.16;82.52;100427.06;5043264;28;20640;-76
2021/09/17 04:06:36;;;;;;;4.20;2.53;;;;;;;12.13;82.44;100415.75;5039609;28;20108;-77
2021/09/17 04:09:01;;;;;;;3.15;2.28;;;;;;;12.08;82.75;100420.25;5059754;28;20036;-77
2021/09/17 04:11:26;;;;;;;2.70;2.20;;;;;;;12.10;82.55;100419.97;5057066;28;20032;-77
2021/09/17 04:13:52;;;;;;;3.47;2.20;;;;;;;12.05;82.75;100420.03;5042842;28;20024;-77
2021/09/17 04:16:17;;;;;;;3.85;2.42;;;;;;;12.02;82.58;100431.78;5041428;28;20034;-77
2021/09/17 04:18:43;;;;;;;3.00;2.45;;;;;;;12.06;82.49;100428.09;5044601;28;20047;-76
2021/09/17 04:21:09;;;;;;;4.15;2.53;;;;;;;11.99;82.39;100424.88;5057584;28;20484;-76
2021/09/17 04:23:34;;;;;;;3.47;2.47;;;;;;;11.94;82.83;100424.16;5076458;28;20032;-76
2021/09/17 04:25:59;;;;;;;3.00;2.50;;;;;;;11.94;82.63;100430.53;5058295;28;20039;-76
2021/09/17 04:28:25;;;;;;;2.42;2.03;;;;;;;11.95;82.40;100428.56;5079821;28;20392;-76
2021/09/17 04:30:51;;;;;;;2.95;2.20;;;;;;;11.90;82.57;100434.25;5010211;28;20046;-76
2021/09/17 04:33:17;;;;;;;3.05;2.47;;;;;;;11.88;82.70;100426.19;5058161;28;20024;-76
2021/09/17 04:35:42;;;;;;;3.20;2.40;;;;;;;11.88;82.93;100430.94;5074078;28;20033;-76
2021/09/17 04:38:08;;;;;;;2.60;2.30;;;;;;;11.83;82.61;100424.28;5054633;28;20044;-76
2021/09/17 04:40:34;;;;;;;3.22;2.33;;;;;;;11.83;82.72;100421.50;5039610;28;20029;-76
2021/09/17 04:42:59;;;;;;;2.55;2.35;;;;;;;11.81;82.74;100417.38;5058474;28;20101;-76
2021/09/17 04:45:25;;;;;;;2.53;2.28;;;;;;;11.79;82.65;100420.47;5040799;28;20146;-76
2021/09/17 04:47:51;;;;;;;3.38;2.30;;;;;;;11.77;82.65;100417.16;5077559;28;20024;-76
2021/09/17 04:50:16;;;;;;;4.07;2.30;;;;;;;11.75;82.86;100415.81;5073625;28;20048;-76
2021/09/17 04:52:42;;;;;;;5.47;2.25;;;;;;;11.77;82.71;100414.38;5058722;28;20036;-76
2021/09/17 04:55:08;;;;;;;2.15;1.90;;;;;;;11.74;82.81;100405.81;5045812;28;20113;-77
2021/09/17 04:57:36;;;;;;;2.88;2.15;;;;;;;11.74;82.74;100403.84;5030371;28;20388;-77
2021/09/17 05:00:03;;;;;;;2.50;2.30;;;;;;;11.70;83.01;100408.41;5062909;28;20028;-77
2021/09/17 05:02:29;;;;;;;3.40;2.00;;;;;;;11.68;82.74;100395.91;5045234;28;20112;-77
2021/09/17 05:04:55;;;;;;;4.35;2.40;;;;;;;11.67;82.91;100397.84;5070773;28;20025;-77
2021/09/17 05:07:21;;;;;;;2.60;2.08;;;;;;;11.68;82.94;100393.13;5005409;28;20664;-77
2021/09/17 05:09:47;;;;;;;2.72;2.45;;;;;;;11.66;82.84;100393.44;5072788;28;20025;-77
2021/09/17 05:12:12;;;;;;;2.42;2.00;;;;;;;11.61;82.70;100396.28;5035075;28;20029;-77
2021/09/17 05:14:38;;;;;;;2.97;2.28;;;;;;;11.63;82.58;100407.94;5034238;28;20149;-76
2021/09/17 05:17:04;;;;;;;2.47;2.17;;;;;;;11.58;82.85;100405.25;5068477;28;20043;-76
2021/09/17 05:19:30;;;;;;;2.47;2.17;;;;;;;11.57;82.93;100400.81;5010417;28;20060;-76
2021/09/17 05:21:55;;;;;;;4.80;2.80;;;;;;;11.56;82.82;100402.78;5071728;28;20024;-76
2021/09/17 05:24:21;;;;;;;4.32;2.15;;;;;;;11.52;82.93;100400.91;5062394;28;20032;-76
2021/09/17 05:26:47;;;;;;;2.50;2.20;;;;;;;11.51;83.18;100408.41;5060641;28;20024;-76
2021/09/17 05:29:12;;;;;;;2.70;2.25;;;;;;;11.47;83.15;100404.56;5060882;28;20040;-78
2021/09/17 05:31:38;;;;;;;2.40;1.95;;;;;;;11.45;83.27;100406.00;5062577;28;20032;-78
2021/09/17 05:34:03;;;;;;;2.58;1.58;;;;;;;11.40;83.17;100399.41;5012697;28;20037;-77
2021/09/17 05:36:28;;;;;;;2.17;1.92;;;;;;;11.40;83.19;100402.19;5042281;28;20032;-77
2021/09/17 05:38:54;;;;;;;2.75;1.85;;;;;;;11.36;83.09;100397.53;5025027;28;20025;-77
2021/09/17 05:41:19;;;;;;;2.65;1.80;;;;;;;11.38;83.11;100400.84;5006227;28;20064;-77
2021/09/17 05:43:45;;;;;;;3.00;2.17;;;;;;;11.35;83.33;100390.31;5006803;28;20109;-78
2021/09/17 05:46:10;;;;;;;3.10;1.85;;;;;;;11.32;83.10;100391.75;5032230;28;20029;-78
2021/09/17 05:48:36;;;;;;;3.53;2.10;;;;;;;11.28;83.33;100387.94;5000421;28;20051;-77
2021/09/17 05:51:02;;;;;;;2.60;2.05;;;;;;;11.25;83.44;100391.28;5013673;28;20429;-78
2021/09/17 05:53:27;;;;;;;2.55;2.28;;;;;;;11.26;83.20;100386.59;5004111;28;20041;-78
2021/09/17 05:55:53;;;;;;;2.45;2.10;;;;;;;11.26;83.37;100390.19;5000281;28;20036;-77
2021/09/17 05:58:18;;;;;;;2.85;2.10;;;;;;;11.28;83.08;100392.66;5003412;28;20033;-78
2021/09/17 06:00:44;;;;;;;5.10;2.58;;;;;;;11.23;83.68;100393.56;4994577;28;20037;-77
2021/09/17 06:03:09;;;;;;;2.63;2.08;;;;;;;11.23;83.31;100401.06;5001829;28;20033;-77
2021/09/17 06:05:35;;;;;;;2.35;2.00;;;;;;;11.23;83.74;100393.56;5026136;28;20034;-77
2021/09/17 06:08:00;;;;;;;2.65;2.17;;;;;;;11.21;83.86;100401.38;5012273;28;20034;-77
2021/09/17 06:10:25;;;;;;;2.67;2.10;;;;;;;11.25;83.56;100388.50;5019304;28;20040;-78
2021/09/17 06:12:51;;;;;;;3.58;2.25;;;;;;;11.26;83.72;100398.53;5015568;28;20037;-77
2021/09/17 06:15:17;;;;;;;3.00;2.42;;;;;;;11.30;83.66;100395.97;5018743;28;20037;-77
2021/09/17 06:17:43;;;;;;;3.05;2.17;;;;;;;11.40;84.49;100398.59;5030675;28;20049;-75
2021/09/17 06:20:10;;;;;;;3.63;1.80;;;;;;;11.56;85.14;100397.22;5010037;28;20041;-80
2021/09/17 06:22:35;;;;;;;3.08;2.17;;;;;;;11.58;86.52;100400.50;5018042;28;20049;-80
2021/09/17 06:25:01;;;;;;;3.13;2.30;;;;;;;11.65;85.70;100411.25;5033925;28;20422;-80
2021/09/17 06:27:27;;;;;;;3.58;2.30;;;;;;;11.71;85.00;100410.03;5028862;28;20054;-80
2021/09/17 06:29:52;;;;;;;2.97;1.83;;;;;;;11.71;84.71;100407.25;5029604;28;20037;-79
2021/09/17 06:32:17;;;;;;;2.70;2.00;;;;;;;11.75;85.14;100405.50;5018858;28;20037;-80
2021/09/17 06:34:43;;;;;;;2.65;2.05;;;;;;;11.77;86.03;100400.47;5033641;28;20029;-80
2021/09/17 06:37:09;;;;;;;2.75;2.20;;;;;;;11.84;86.61;100408.44;4998728;28;20026;-80
2021/09/17 06:39:35;;;;;;;5.78;2.50;;;;;;;11.91;86.61;100408.06;5023286;28;20028;-80
2021/09/17 06:42:01;;;;;;;3.13;2.78;;;;;;;11.96;86.91;100403.22;5027188;28;20089;-80
2021/09/17 06:44:27;;;;;;;2.88;2.30;;;;;;;12.04;85.98;100396.97;5054104;28;20385;-80
2021/09/17 06:46:53;;;;;;;2.90;2.30;;;;;;;12.14;85.30;100398.72;5033399;28;20025;-80
2021/09/17 06:49:18;;;;;;;2.70;2.10;;;;;;;12.23;85.42;100399.66;5056306;28;20062;-80
2021/09/17 06:51:44;;;;;;;2.80;2.42;;;;;;;12.32;85.77;100402.56;5052877;28;20044;-80
2021/09/17 06:54:09;;;;;;;2.17;1.98;;;;;;;12.40;85.30;100392.66;5023160;28;20121;-80
2021/09/17 06:56:35;;;;;;;2.38;2.08;;;;;;;12.50;85.75;100396.06;5055787;28;20025;-80
2021/09/17 06:59:02;;;;;;;2.83;2.28;;;;;;;12.61;86.21;100404.22;5072287;28;20076;-82
2021/09/17 07:01:27;;;;;;;2.90;2.60;;;;;;;12.69;86.59;100395.94;5074511;28;20357;-80
2021/09/17 07:03:53;;;;;;;3.80;2.08;;;;;;;12.81;84.84;100394.59;5055892;28;20040;-79
2021/09/17 07:06:18;;;;;;;3.75;2.10;;;;;;;12.95;85.30;100398.16;5059059;28;20028;-79
2021/09/17 07:08:44;;;;;;;4.10;2.45;;;;;;;13.05;86.13;100397.94;5040602;28;20095;-79
2021/09/17 07:11:09;;;;;;;2.30;1.88;;;;;;;13.17;85.60;100395.44;5040474;28;20040;-79
2021/09/17 07:13:35;;;;;;;2.17;1.73;;;;;;;13.31;85.45;100398.22;5027617;28;20091;-79
2021/09/17 07:16:00;;;;;;;4.28;2.38;;;;;;;13.43;84.54;100394.03;5042633;28;20032;-78
2021/09/17 07:18:26;;;;;;;3.33;2.22;;;;;;;13.57;85.09;100392.84;5014565;28;20081;-79
2021/09/17 07:20:52;;;;;;;2.03;1.63;;;;;;;13.71;84.46;100390.00;5023643;28;20029;-78
2021/09/17 07:23:17;;;;;;;3.75;2.78;;;;;;;13.87;85.86;100387.63;5041348;28;20043;-81
2021/09/17 07:25:43;;;;;;;3.58;2.72;;;;;;;14.03;84.32;100382.47;5025068;28;20039;-81
2021/09/17 07:28:08;;;;;;;7.82;5.53;;;;;;;14.19;86.56;100392.06;5045636;28;20033;-81
2021/09/17 07:30:34;;;;;;;7.32;4.43;;;;;;;14.37;86.54;100395.75;5014568;28;20028;-80
2021/09/17 07:32:59;;;;;;;4.07;3.30;;;;;;;14.53;84.98;100393.38;5025633;28;20029;-81
2021/09/17 07:35:25;;;;;;;7.65;5.25;;;;;;;14.71;85.86;100397.06;5022027;28;20098;-81
2021/09/17 07:37:51;;;;;;;7.50;5.68;;;;;;;14.88;88.26;100391.53;5043091;28;20041;-79
2021/09/17 07:40:17;;;;;;;7.32;5.43;;;;;;;15.06;87.30;100397.13;5047200;28;20048;-80
2021/09/17 07:42:43;;;;;;;7.82;5.15;;;;;;;15.24;88.15;100386.78;5055192;28;20036;-80
2021/09/17 07:45:09;;;;;;;13.15;9.27;;;;;;;15.43;90.25;100392.88;5025523;28;20107;-80
2021/09/17 07:47:35;;;;;;;9.20;7.60;;;;;;;15.60;88.30;100387.28;5054912;28;20028;-81
2021/09/17 07:50:00;;;;;;;9.98;7.78;;;;;;;15.80;89.31;100390.56;5009687;28;20082;-81
2021/09/17 07:52:26;;;;;;;18.80;13.82;;;;;;;15.96;93.29;100394.47;5039423;28;20103;-80
2021/09/17 07:54:51;;;;;;;15.45;11.20;;;;;;;16.13;91.62;100390.81;5056176;28;20067;-80
2021/09/17 07:57:17;;;;;;;17.10;11.70;;;;;;;16.32;91.79;100387.59;5040626;28;20043;-80
2021/09/17 07:59:43;;;;;;;15.27;11.13;;;;;;;16.49;90.95;100397.91;5072633;28;20029;-80
2021/09/17 08:02:09;;;;;;;20.90;14.52;;;;;;;16.65;92.69;100399.00;5057211;28;20033;-80
2021/09/17 08:04:38;;;;;;;16.05;11.38;;;;;;;16.82;91.38;100402.91;5067663;28;20485;-80
2021/09/17 08:07:05;;;;;;;13.23;9.55;;;;;;;16.99;90.33;100402.78;5055249;28;20031;-80
2021/09/17 08:09:30;;;;;;;14.70;11.23;;;;;;;17.13;89.50;100394.97;5057088;28;20126;-80
2021/09/17 08:11:56;;;;;;;16.45;11.15;;;;;;;17.31;89.38;100400.44;5032295;28;20380;-81
2021/09/17 08:14:21;;;;;;;15.10;10.25;;;;;;;17.50;87.72;100397.16;5039569;28;20033;-81
2021/09/17 08:16:47;;;;;;;19.15;12.70;;;;;;;17.69;88.40;100400.28;5051622;28;20142;-81
2021/09/17 08:19:12;;;;;;;17.27;12.52;;;;;;;17.82;87.70;100395.53;5073672;28;20029;-81
2021/09/17 08:21:42;;;;;;;15.52;10.85;;;;;;;18.00;86.37;100393.41;5054715;28;20036;-81
2021/09/17 08:24:16;;;;;;;14.57;11.05;;;;;;;18.19;88.16;100402.09;5055823;28;20779;-80
2021/09/17 08:26:43;;;;;;;17.80;13.05;;;;;;;18.36;86.57;100395.47;5031052;28;20079;-80
2021/09/17 08:29:08;;;;;;;17.15;11.98;;;;;;;18.53;84.92;100388.78;5058242;28;20050;-80
2021/09/17 08:31:34;;;;;;;16.98;12.40;;;;;;;18.73;86.26;100392.66;5043903;28;20095;-81
2021/09/17 08:34:00;;;;;;;19.67;12.90;;;;;;;18.91;84.21;100396.88;5057671;28;20032;-82
2021/09/17 08:36:25;;;;;;;12.82;10.38;;;;;;;19.10;83.42;100384.19;5060091;28;20028;-81
2021/09/17 08:38:51;;;;;;;12.93;9.65;;;;;;;19.26;83.01;100396.38;5057050;28;20484;-81
2021/09/17 08:41:16;;;;;;;14.55;10.18;;;;;;;19.41;82.39;100383.53;5054058;28;20024;-80
2021/09/17 08:43:43;;;;;;;13.65;10.25;;;;;;;19.57;82.00;100380.78;5043491;28;20048;-80
2021/09/17 08:46:15;;;;;;;15.75;10.40;;;;;;;19.67;81.70;100385.94;5059252;28;20040;-80
2021/09/17 08:48:40;;;;;;;13.68;9.90;;;;;;;19.82;81.42;100387.16;5034240;28;20476;-81
2021/09/17 08:51:06;;;;;;;10.70;9.00;;;;;;;19.97;81.57;100388.34;5054679;28;20106;-80
2021/09/17 08:53:32;;;;;;;12.10;8.30;;;;;;;20.12;81.08;100384.75;5072427;28;20502;-80
2021/09/17 08:55:58;;;;;;;11.95;8.38;;;;;;;20.22;81.86;100384.22;5041389;28;20043;-80
2021/09/17 08:58:24;;;;;;;9.77;7.00;;;;;;;20.35;79.85;100382.13;5042026;28;20037;-74
2021/09/17 09:00:49;;;;;;;11.43;7.55;;;;;;;20.52;79.23;100375.31;5077356;28;20082;-74
2021/09/17 09:03:29;;;;;;;10.02;8.02;;;;;;;20.63;78.67;100379.25;5076613;28;20031;-74
2021/09/17 09:05:55;;;;;;;10.57;8.00;;;;;;;20.77;77.74;100386.44;5075270;28;20537;-74
2021/09/17 09:08:24;;;;;;;12.35;8.13;;;;;;;20.87;77.67;100378.22;5075136;28;20041;-74
2021/09/17 09:10:50;;;;;;;9.40;7.32;;;;;;;21.01;78.20;100388.22;5053084;28;20101;-75
2021/09/17 09:13:15;;;;;;;9.57;7.22;;;;;;;21.10;77.77;100386.81;5075618;28;20040;-74
2021/09/17 09:15:41;;;;;;;10.85;7.40;;;;;;;21.19;76.88;100381.75;5076629;28;20040;-74
2021/09/17 09:18:12;;;;;;;8.63;6.35;;;;;;;21.30;76.03;100382.00;5057073;28;20070;-75
2021/09/17 09:20:47;;;;;;;8.85;6.22;;;;;;;21.40;76.57;100389.13;5073925;28;20033;-75
2021/09/17 09:23:17;;;;;;;14.27;7.55;;;;;;;21.53;77.06;100396.25;5077088;28;20035;-75
2021/09/17 09:26:06;;;;;;;8.40;6.30;;;;;;;21.68;76.01;100388.09;5057312;28;20743;-75
2021/09/17 09:28:39;;;;;;;10.43;7.20;;;;;;;21.76;75.21;100389.88;5072850;28;20058;-75
2021/09/17 09:31:09;;;;;;;10.02;7.05;;;;;;;21.86;74.37;100386.41;5077516;28;20128;-75
2021/09/17 09:33:39;;;;;;;10.05;7.07;;;;;;;21.97;75.15;100392.28;5058938;28;20032;-76
2021/09/17 09:36:15;;;;;;;13.05;7.55;;;;;;;22.08;74.67;100379.97;5041663;28;20025;-76
2021/09/17 09:38:48;;;;;;;9.02;6.28;;;;;;;22.23;74.18;100380.25;5041733;28;20409;-76
2021/09/17 09:41:15;;;;;;;9.20;7.20;;;;;;;22.34;73.90;100386.94;5058638;28;20028;-75
2021/09/17 09:43:48;;;;;;;10.65;6.18;;;;;;;22.46;73.31;100378.28;5074716;28;20142;-75
2021/09/17 09:46:33;;;;;;;7.28;6.25;;;;;;;22.53;72.41;100384.03;5075876;28;20093;-74
2021/09/17 09:48:59;;;;;;;9.60;6.28;;;;;;;22.63;71.07;100388.25;5074750;28;20105;-74
2021/09/17 09:51:28;;;;;;;7.82;5.75;;;;;;;22.67;70.82;100391.13;5048398;28;20036;-75
2021/09/17 09:53:53;;;;;;;7.00;5.35;;;;;;;22.70;71.55;100377.03;5076412;28;20051;-75
2021/09/17 09:56:19;;;;;;;7.78;5.40;;;;;;;22.77;71.46;100373.50;5075080;28;20029;-76
2021/09/17 09:58:46;;;;;;;7.47;4.72;;;;;;;22.82;71.16;100380.88;5076287;28;20124;-76
2021/09/17 10:01:11;;;;;;;6.68;4.30;;;;;;;22.88;70.99;100373.69;5058916;28;20040;-75
2021/09/17 10:03:37;;;;;;;6.95;4.35;;;;;;;22.87;69.95;100370.03;5040641;28;20037;-75
2021/09/17 10:06:02;;;;;;;4.82;3.80;;;;;;;22.89;70.28;100364.78;5042923;28;20036;-75
2021/09/17 10:08:28;;;;;;;5.07;3.25;;;;;;;23.00;69.75;100365.00;5043058;28;20404;-77
2021/09/17 10:10:53;;;;;;;5.07;3.20;;;;;;;23.04;69.54;100368.69;5048666;28;20055;-76
2021/09/17 10:13:19;;;;;;;5.40;3.38;;;;;;;23.08;69.15;100363.91;5024445;28;20055;-74
2021/09/17 10:15:44;;;;;;;7.07;3.80;;;;;;;23.12;69.01;100359.13;5057726;28;20036;-75
2021/09/17 10:18:10;;;;;;;4.03;3.33;;;;;;;23.22;69.06;100354.78;5056337;28;20484;-76
2021/09/17 10:20:36;;;;;;;6.43;3.78;;;;;;;23.29;69.65;100359.72;5072367;28;20028;-76
2021/09/17 10:23:26;;;;;;;4.60;3.17;;;;;;;23.39;69.50;100359.84;5055626;28;20370;-76
2021/09/17 10:26:08;;;;;;;5.45;3.72;;;;;;;23.47;68.58;100357.13;5068821;28;20032;-77
2021/09/17 10:28:34;;;;;;;6.10;3.65;;;;;;;23.59;67.67;100352.00;5058648;28;20040;-77
2021/09/17 10:31:16;;;;;;;6.50;3.83;;;;;;;23.69;68.08;100344.84;5057000;28;20040;-76
2021/09/17 10:33:41;;;;;;;5.70;4.40;;;;;;;23.81;67.00;100346.63;5068481;28;20033;-75
2021/09/17 10:36:07;;;;;;;5.85;4.32;;;;;;;23.91;66.72;100336.63;5055132;28;20054;-76
2021/09/17 10:38:33;;;;;;;8.45;4.80;;;;;;;24.02;66.35;100335.50;5068711;28;20032;-76
2021/09/17 10:41:02;;;;;;;5.65;3.80;;;;;;;24.18;65.26;100337.25;5058846;28;20135;-76
2021/09/17 10:43:31;;;;;;;7.03;5.10;;;;;;;24.22;65.04;100335.28;5073124;28;20056;-76
2021/09/17 10:46:02;;;;;;;5.28;4.53;;;;;;;24.30;65.40;100337.78;5055232;28;20039;-76
2021/09/17 10:48:29;;;;;;;4.20;3.80;;;;;;;24.42;65.49;100333.03;5057269;28;20024;-75
2021/09/17 10:51:00;;;;;;;5.30;3.47;;;;;;;24.53;64.92;100340.44;5073942;28;20029;-76
2021/09/17 10:53:41;;;;;;;8.35;5.10;;;;;;;24.60;63.01;100330.34;5053359;28;20032;-76
2021/09/17 10:56:15;;;;;;;5.68;4.30;;;;;;;24.68;61.59;100327.19;5069102;28;20028;-77
2021/09/17 10:58:45;;;;;;;6.30;4.57;;;;;;;24.71;61.61;100331.25;5038425;28;20035;-76
2021/09/17 11:01:15;;;;;;;5.57;4.20;;;;;;;24.77;61.94;100331.69;5050650;28;20037;-76
2021/09/17 11:03:49;;;;;;;5.53;4.30;;;;;;;24.78;62.37;100325.63;5050134;28;20553;-76
2021/09/17 11:06:18;;;;;;;6.55;4.40;;;;;;;24.77;61.40;100332.53;5072151;28;20606;-76
2021/09/17 11:08:56;;;;;;;6.03;5.05;;;;;;;24.79;61.41;100324.41;5073964;28;20119;-76
2021/09/17 11:11:32;;;;;;;5.60;4.28;;;;;;;24.80;60.38;100313.88;5070632;28;20034;-75
2021/09/17 11:13:59;;;;;;;6.05;3.95;;;;;;;24.77;59.36;100311.81;5079648;28;20194;-76
2021/09/17 11:16:26;;;;;;;6.10;3.92;;;;;;;24.74;59.32;100311.41;5073672;28;20075;-76
2021/09/17 11:19:05;;;;;;;4.88;4.30;;;;;;;24.68;60.89;100304.47;5047789;28;20112;-76
2021/09/17 11:21:34;;;;;;;5.88;3.63;;;;;;;24.69;61.14;100299.59;5050526;28;20060;-76